Terminal Aerodrome Forecast
Issued by NWS Paducah, KY

Home | Current Version | Previous Version | Graphics & Text | Print | Product List | Glossary On
Versions: 1 2 3 4 5 6 7 8 9 10 11 12
000
FTUS43 KPAH 031736
TAFPAH
TAF
KPAH 031736Z 0318/0418 20010G16KT P6SM SCT100
     FM040000 19006KT P6SM SCT150
     FM041500 22010G16KT P6SM BKN150=

USA.gov is the U.S. government's official web portal to all federal, state and local government web resources and services.